PWSweather.com
Personal Weather Stations
Station Observations
SPARKSRC
St. Petersburg, FL 33716

St. Petersburg, FL 33716

Lat: 27.876101, Lon: -82.657194

Elevation: 13

Station Type: Zephyr PWS-1000TD

Latest ConditionsUpdated 8:35:01 PM EDT Wednesday, Aug 15, 2018
Currently Today's Max Today's Min Today's Average
Temperature 79.9°F26.6°C 109.0°F42.8°C 75.0°F23.9°C 86.8°F30.4°C
Dew Point 71.7°F22.1°C 81.5°F27.5°C 68.5°F20.3°C 74.0°F23.3°C
Winds 0.7 mph N1.1 kmh N 19.0 mph -30.6 kmh - - 3.7 mph 6.0 kmh
Wind Gusts 4.5 mph7.2 kmh 28.9 mph46.5 kmh - -
Humidity 76% 80% 42% 67%
Pressure 29.93 in1013.5 mb 29.96 in1014.6 mb 29.88 in1011.9 mb -
Precipitation - 0.26 in6.6 mm - -
Hour Temp Dew Point Humidity Winds Wind Gusts Pressure Precip Precip Rate Daily Precip Total
08:35 PM 79.9°F26.6°C 71.7°F22.1°C 76% 0.7 mph N1.1 kmh N 4.5 mph7.2 kmh 29.93 in1013.5 mb 0.00 in0.0 mm 0.00 in0.0 mm 0.26 in6.6 mm
08:30 PM 80.2°F26.8°C 72.0°F22.2°C 76% 2.2 mph N3.5 kmh N 4.5 mph7.2 kmh 29.93 in1013.5 mb 0.00 in0.0 mm 0.00 in0.0 mm 0.26 in6.6 mm
08:25 PM 80.2°F26.8°C 72.0°F22.2°C 76% 3.1 mph N5.0 kmh N 5.4 mph8.7 kmh 29.92 in1013.2 mb 0.00 in0.0 mm 0.00 in0.0 mm 0.26 in6.6 mm
08:20 PM 80.4°F26.9°C 72.2°F22.3°C 76% 3.1 mph N5.0 kmh N 5.4 mph8.7 kmh 29.92 in1013.2 mb 0.00 in0.0 mm 0.00 in0.0 mm 0.26 in6.6 mm
08:15 PM 80.2°F26.8°C 72.0°F22.2°C 76% 4.5 mph N7.2 kmh N 5.4 mph8.7 kmh 29.92 in1013.2 mb 0.00 in0.0 mm 0.00 in0.0 mm 0.26 in6.6 mm
08:10 PM 80.1°F26.7°C 71.5°F21.9°C 75% 3.1 mph N5.0 kmh N 5.4 mph8.7 kmh 29.92 in1013.2 mb 0.00 in0.0 mm 0.00 in0.0 mm 0.26 in6.6 mm
08:05 PM 80.2°F26.8°C 71.6°F22.0°C 75% 1.6 mph NW2.6 kmh NW 5.4 mph8.7 kmh 29.91 in1012.9 mb 0.00 in0.0 mm 0.00 in0.0 mm 0.26 in6.6 mm
08:00 PM 80.4°F26.9°C 71.8°F22.1°C 75% 2.2 mph NW3.5 kmh NW 4.5 mph7.2 kmh 29.91 in1012.9 mb 0.00 in0.0 mm 0.00 in0.0 mm 0.26 in6.6 mm
07:55 PM 80.2°F26.8°C 71.6°F22.0°C 75% 1.6 mph NW2.6 kmh NW 6.9 mph11.1 kmh 29.91 in1012.9 mb 0.00 in0.0 mm 0.00 in0.0 mm 0.26 in6.6 mm
07:50 PM 80.4°F26.9°C 71.8°F22.1°C 75% 2.2 mph NNW3.5 kmh NNW 6.9 mph11.1 kmh 29.91 in1012.9 mb 0.00 in0.0 mm 0.00 in0.0 mm 0.26 in6.6 mm
07:45 PM 80.4°F26.9°C 71.8°F22.1°C 75% 3.8 mph NNW6.1 kmh NNW 6.9 mph11.1 kmh 29.91 in1012.9 mb 0.00 in0.0 mm 0.00 in0.0 mm 0.26 in6.6 mm
07:40 PM 80.2°F26.8°C 71.3°F21.8°C 74% 2.2 mph NW3.5 kmh NW 5.4 mph8.7 kmh 29.91 in1012.9 mb 0.00 in0.0 mm 0.00 in0.0 mm 0.26 in6.6 mm
07:35 PM 80.2°F26.8°C 71.3°F21.8°C 74% 1.6 mph NW2.6 kmh NW 5.4 mph8.7 kmh 29.91 in1012.9 mb 0.00 in0.0 mm 0.00 in0.0 mm 0.26 in6.6 mm
07:30 PM 80.6°F27.0°C 71.6°F22.0°C 74% 3.1 mph NNW5.0 kmh NNW 5.4 mph8.7 kmh 29.91 in1012.9 mb 0.00 in0.0 mm 0.00 in0.0 mm 0.26 in6.6 mm
07:25 PM 80.6°F27.0°C 71.6°F22.0°C 74% 3.1 mph N5.0 kmh N 5.4 mph8.7 kmh 29.92 in1013.2 mb 0.00 in0.0 mm 0.00 in0.0 mm 0.26 in6.6 mm
07:20 PM 80.6°F27.0°C 71.2°F21.8°C 73% 3.8 mph NNW6.1 kmh NNW 4.5 mph7.2 kmh 29.92 in1013.2 mb 0.00 in0.0 mm 0.00 in0.0 mm 0.26 in6.6 mm
07:15 PM 80.6°F27.0°C 71.2°F21.8°C 73% 1.6 mph NW2.6 kmh NW 4.5 mph7.2 kmh 29.91 in1012.9 mb 0.00 in0.0 mm 0.00 in0.0 mm 0.26 in6.6 mm
07:10 PM 80.6°F27.0°C 71.2°F21.8°C 73% 2.2 mph NW3.5 kmh NW 3.8 mph6.1 kmh 29.91 in1012.9 mb 0.00 in0.0 mm 0.00 in0.0 mm 0.26 in6.6 mm
07:05 PM 80.8°F27.1°C 71.4°F21.9°C 73% 2.2 mph NNE3.5 kmh NNE 3.1 mph5.0 kmh 29.91 in1012.9 mb 0.00 in0.0 mm 0.00 in0.0 mm 0.26 in6.6 mm
07:00 PM 80.6°F27.0°C 71.2°F21.8°C 73% Calm Calm 2.2 mph3.5 kmh 29.91 in1012.9 mb 0.00 in0.0 mm 0.00 in0.0 mm 0.26 in6.6 mm
06:55 PM 80.8°F27.1°C 71.4°F21.9°C 73% 0.7 mph NE1.1 kmh NE 2.2 mph3.5 kmh 29.90 in1012.5 mb 0.00 in0.0 mm 0.00 in0.0 mm 0.26 in6.6 mm
06:50 PM 80.6°F27.0°C 71.2°F21.8°C 73% 1.6 mph N2.6 kmh N 2.2 mph3.5 kmh 29.90 in1012.5 mb 0.00 in0.0 mm 0.00 in0.0 mm 0.26 in6.6 mm
06:45 PM 80.8°F27.1°C 71.0°F21.7°C 72% 0.7 mph SSW1.1 kmh SSW 3.8 mph6.1 kmh 29.90 in1012.5 mb 0.00 in0.0 mm 0.00 in0.0 mm 0.26 in6.6 mm
06:40 PM 81.0°F27.2°C 71.1°F21.7°C 72% Calm Calm 3.8 mph6.1 kmh 29.90 in1012.5 mb 0.01 in0.3 mm 0.00 in0.0 mm 0.26 in6.6 mm
06:35 PM 81.0°F27.2°C 71.1°F21.7°C 72% 3.1 mph W5.0 kmh W 3.8 mph6.1 kmh 29.91 in1012.9 mb 0.01 in0.3 mm 0.00 in0.0 mm 0.26 in6.6 mm
06:30 PM 81.0°F27.2°C 71.1°F21.7°C 72% 2.2 mph NW3.5 kmh NW 6.0 mph9.7 kmh 29.90 in1012.5 mb 0.01 in0.3 mm 0.00 in0.0 mm 0.26 in6.6 mm
06:25 PM 81.0°F27.2°C 71.1°F21.7°C 72% 2.2 mph NW3.5 kmh NW 6.0 mph9.7 kmh 29.91 in1012.9 mb 0.08 in2.0 mm 0.00 in0.0 mm 0.26 in6.6 mm
06:20 PM 81.3°F27.4°C 71.5°F21.9°C 72% 4.5 mph W7.2 kmh W 6.0 mph9.7 kmh 29.91 in1012.9 mb 0.17 in4.3 mm 0.00 in0.0 mm 0.26 in6.6 mm
06:15 PM 81.3°F27.4°C 71.1°F21.7°C 71% 0.7 mph SE1.1 kmh SE 3.1 mph5.0 kmh 29.91 in1012.9 mb 0.17 in4.3 mm 0.00 in0.0 mm 0.26 in6.6 mm
06:10 PM 81.5°F27.5°C 71.2°F21.8°C 71% 1.6 mph ESE2.6 kmh ESE 6.9 mph11.1 kmh 29.90 in1012.5 mb 0.18 in4.6 mm 0.00 in0.0 mm 0.26 in6.6 mm
06:05 PM 81.7°F27.6°C 71.4°F21.9°C 71% 2.2 mph SE3.5 kmh SE 9.8 mph15.8 kmh 29.90 in1012.5 mb 0.18 in4.6 mm 0.00 in0.0 mm 0.26 in6.6 mm
06:00 PM 81.9°F27.7°C 71.6°F22.0°C 71% 3.8 mph SE6.1 kmh SE 13.0 mph20.9 kmh 29.91 in1012.9 mb 0.18 in4.6 mm 0.00 in0.0 mm 0.26 in6.6 mm
05:55 PM 82.0°F27.8°C 71.3°F21.8°C 70% 6.9 mph SSE11.1 kmh SSE 13.0 mph20.9 kmh 29.90 in1012.5 mb 0.18 in4.6 mm 0.00 in0.0 mm 0.26 in6.6 mm
05:50 PM 82.6°F28.1°C 71.9°F22.2°C 70% 1.6 mph S2.6 kmh S 8.3 mph13.4 kmh 29.89 in1012.2 mb 0.18 in4.6 mm 0.00 in0.0 mm 0.26 in6.6 mm
05:45 PM 82.0°F27.8°C 71.3°F21.8°C 70% 6.0 mph SE9.7 kmh SE 8.3 mph13.4 kmh 29.90 in1012.5 mb 0.20 in5.1 mm 0.00 in0.0 mm 0.26 in6.6 mm
05:40 PM 83.1°F28.4°C 72.0°F22.2°C 69% 0.7 mph N1.1 kmh N 6.9 mph11.1 kmh 29.90 in1012.5 mb 0.20 in5.1 mm 0.00 in0.0 mm 0.25 in6.4 mm
05:35 PM 83.3°F28.5°C 72.1°F22.3°C 69% 4.5 mph NW7.2 kmh NW 12.1 mph19.5 kmh 29.89 in1012.2 mb 0.20 in5.1 mm 0.00 in0.0 mm 0.25 in6.4 mm
05:30 PM 83.7°F28.7°C 72.0°F22.2°C 68% 5.4 mph S8.7 kmh S 12.1 mph19.5 kmh 29.89 in1012.2 mb 0.20 in5.1 mm 0.72 in18.3 mm 0.25 in6.4 mm
05:25 PM 84.6°F29.2°C 72.0°F22.2°C 66% 4.5 mph SE7.2 kmh SE 25.9 mph41.7 kmh 29.90 in1012.5 mb 0.14 in3.6 mm 0.72 in18.3 mm 0.18 in4.6 mm
05:20 PM 85.5°F29.7°C 72.4°F22.4°C 65% 8.3 mph SE13.4 kmh SE 28.9 mph46.5 kmh 29.89 in1012.2 mb 0.08 in2.0 mm 0.00 in0.0 mm 0.09 in2.3 mm
05:15 PM 87.3°F30.7°C 73.7°F23.2°C 64% 19.0 mph ESE30.6 kmh ESE 28.9 mph46.5 kmh 29.89 in1012.2 mb 0.09 in2.3 mm 0.12 in3.0 mm 0.09 in2.3 mm
05:10 PM 88.3°F31.3°C 74.7°F23.7°C 64% 3.8 mph ENE6.1 kmh ENE 11.4 mph18.3 kmh 29.89 in1012.2 mb 0.08 in2.0 mm 0.00 in0.0 mm 0.08 in2.0 mm
05:05 PM 88.2°F31.2°C 74.5°F23.6°C 64% 5.4 mph NE8.7 kmh NE 14.5 mph23.3 kmh 29.89 in1012.2 mb 0.08 in2.0 mm 0.00 in0.0 mm 0.08 in2.0 mm
05:00 PM 88.5°F31.4°C 74.9°F23.8°C 64% 6.9 mph ENE11.1 kmh ENE 16.8 mph27.0 kmh 29.88 in1011.9 mb 0.08 in2.0 mm 0.00 in0.0 mm 0.08 in2.0 mm
04:55 PM 89.2°F31.8°C 75.5°F24.2°C 64% 10.7 mph E17.2 kmh E 16.8 mph27.0 kmh 29.89 in1012.2 mb 0.08 in2.0 mm 0.12 in3.0 mm 0.08 in2.0 mm
04:50 PM 90.7°F32.6°C 76.4°F24.7°C 63% 9.8 mph E15.8 kmh E 16.8 mph27.0 kmh 29.89 in1012.2 mb 0.07 in1.8 mm 0.12 in3.0 mm 0.07 in1.8 mm
04:45 PM 92.1°F33.4°C 76.8°F24.9°C 61% 13.6 mph E21.9 kmh E 16.8 mph27.0 kmh 29.88 in1011.9 mb 0.06 in1.5 mm 0.12 in3.0 mm 0.06 in1.5 mm
04:40 PM 94.1°F34.5°C 78.2°F25.7°C 60% 9.2 mph E14.8 kmh E 12.1 mph19.5 kmh 29.88 in1011.9 mb 0.05 in1.3 mm 0.00 in0.0 mm 0.05 in1.3 mm
04:35 PM 94.5°F34.7°C 78.0°F25.6°C 59% 3.1 mph SE5.0 kmh SE 9.2 mph14.8 kmh 29.88 in1011.9 mb 0.05 in1.3 mm 0.00 in0.0 mm 0.05 in1.3 mm
04:30 PM 95.5°F35.3°C 78.0°F25.6°C 57% 4.5 mph SSE7.2 kmh SSE 13.0 mph20.9 kmh 29.88 in1011.9 mb 0.05 in1.3 mm 0.12 in3.0 mm 0.05 in1.3 mm
04:25 PM 97.2°F36.2°C 77.8°F25.4°C 54% 6.9 mph S11.1 kmh S 15.9 mph25.6 kmh 29.89 in1012.2 mb 0.04 in1.0 mm 0.36 in9.1 mm 0.04 in1.0 mm
04:20 PM 99.9°F37.7°C 78.6°F25.9°C 51% 9.2 mph SSW14.8 kmh SSW 15.9 mph25.6 kmh 29.89 in1012.2 mb 0.01 in0.3 mm 0.12 in3.0 mm 0.01 in0.3 mm
04:15 PM 103.3°F39.6°C 79.2°F26.2°C 47% 7.6 mph SSW12.2 kmh SSW 13.6 mph21.9 kmh 29.89 in1012.2 mb 0.00 in0.0 mm 0.00 in0.0 mm 0.00 in0.0 mm
04:10 PM 104.5°F40.3°C 80.4°F26.9°C 47% 6.9 mph SSW11.1 kmh SSW 13.0 mph20.9 kmh 29.88 in1011.9 mb 0.00 in0.0 mm 0.00 in0.0 mm 0.00 in0.0 mm
04:05 PM 104.5°F40.3°C 80.4°F26.9°C 47% 6.9 mph SSW11.1 kmh SSW 13.0 mph20.9 kmh 29.89 in1012.2 mb 0.00 in0.0 mm 0.00 in0.0 mm 0.00 in0.0 mm
04:00 PM 103.8°F39.9°C 80.4°F26.9°C 48% 9.8 mph SW15.8 kmh SW 13.0 mph20.9 kmh 29.89 in1012.2 mb 0.00 in0.0 mm 0.00 in0.0 mm 0.00 in0.0 mm
03:55 PM 102.7°F39.3°C 78.7°F25.9°C 47% 8.3 mph WSW13.4 kmh WSW 13.0 mph20.9 kmh 29.89 in1012.2 mb 0.00 in0.0 mm 0.00 in0.0 mm 0.00 in0.0 mm
03:50 PM 104.5°F40.3°C 79.1°F26.2°C 45% 7.6 mph SSW12.2 kmh SSW 11.4 mph18.3 kmh 29.89 in1012.2 mb 0.00 in0.0 mm 0.00 in0.0 mm 0.00 in0.0 mm
03:45 PM 107.1°F41.7°C 79.9°F26.6°C 43% 4.5 mph S7.2 kmh S 9.2 mph14.8 kmh 29.90 in1012.5 mb 0.00 in0.0 mm 0.00 in0.0 mm 0.00 in0.0 mm
03:40 PM 109.0°F42.8°C 81.0°F27.2°C 42% 3.8 mph SSW6.1 kmh SSW 8.3 mph13.4 kmh 29.90 in1012.5 mb 0.00 in0.0 mm 0.00 in0.0 mm 0.00 in0.0 mm
03:35 PM 108.3°F42.4°C 81.1°F27.3°C 43% 3.1 mph WNW5.0 kmh WNW 6.9 mph11.1 kmh 29.90 in1012.5 mb 0.00 in0.0 mm 0.00 in0.0 mm 0.00 in0.0 mm
03:30 PM 107.1°F41.7°C 81.3°F27.4°C 45% Calm Calm 6.0 mph9.7 kmh 29.91 in1012.9 mb 0.00 in0.0 mm 0.00 in0.0 mm 0.00 in0.0 mm
03:25 PM 106.0°F41.1°C 81.0°F27.2°C 46% 3.1 mph WSW5.0 kmh WSW 4.5 mph7.2 kmh 29.91 in1012.9 mb 0.00 in0.0 mm 0.00 in0.0 mm 0.00 in0.0 mm
03:20 PM 104.2°F40.1°C 80.1°F26.7°C 47% 0.7 mph SSW1.1 kmh SSW 4.5 mph7.2 kmh 29.91 in1012.9 mb 0.00 in0.0 mm 0.00 in0.0 mm 0.00 in0.0 mm
03:15 PM 104.9°F40.5°C 80.0°F26.7°C 46% 0.7 mph SSW1.1 kmh SSW 7.6 mph12.2 kmh 29.91 in1012.9 mb 0.00 in0.0 mm 0.00 in0.0 mm 0.00 in0.0 mm
03:10 PM 105.4°F40.8°C 79.2°F26.2°C 44% 1.6 mph S2.6 kmh S 7.6 mph12.2 kmh 29.91 in1012.9 mb 0.00 in0.0 mm 0.00 in0.0 mm 0.00 in0.0 mm
03:05 PM 107.2°F41.8°C 80.1°F26.7°C 43% 6.0 mph S9.7 kmh S 7.6 mph12.2 kmh 29.91 in1012.9 mb 0.00 in0.0 mm 0.00 in0.0 mm 0.00 in0.0 mm
03:00 PM 106.9°F41.6°C 80.5°F26.9°C 44% 0.7 mph S1.1 kmh S 7.6 mph12.2 kmh 29.91 in1012.9 mb 0.00 in0.0 mm 0.00 in0.0 mm 0.00 in0.0 mm
02:55 PM 106.5°F41.4°C 80.2°F26.8°C 44% 2.2 mph SSW3.5 kmh SSW 8.3 mph13.4 kmh 29.91 in1012.9 mb 0.00 in0.0 mm 0.00 in0.0 mm 0.00 in0.0 mm
02:50 PM 106.5°F41.4°C 80.8°F27.1°C 45% 3.1 mph SW5.0 kmh SW 8.3 mph13.4 kmh 29.92 in1013.2 mb 0.00 in0.0 mm 0.00 in0.0 mm 0.00 in0.0 mm
02:45 PM 105.1°F40.6°C 80.2°F26.8°C 46% 3.1 mph E5.0 kmh E 6.0 mph9.7 kmh 29.91 in1012.9 mb 0.00 in0.0 mm 0.00 in0.0 mm 0.00 in0.0 mm
02:40 PM 104.4°F40.2°C 79.6°F26.4°C 46% 3.1 mph ESE5.0 kmh ESE 8.3 mph13.4 kmh 29.92 in1013.2 mb 0.00 in0.0 mm 0.00 in0.0 mm 0.00 in0.0 mm
02:35 PM 104.2°F40.1°C 78.7°F25.9°C 45% 2.2 mph SE3.5 kmh SE 10.7 mph17.2 kmh 29.92 in1013.2 mb 0.00 in0.0 mm 0.00 in0.0 mm 0.00 in0.0 mm
02:30 PM 103.6°F39.8°C 78.9°F26.1°C 46% 6.9 mph SE11.1 kmh SE 10.7 mph17.2 kmh 29.93 in1013.5 mb 0.00 in0.0 mm 0.00 in0.0 mm 0.00 in0.0 mm
02:25 PM 103.1°F39.5°C 78.4°F25.8°C 46% 6.0 mph SE9.7 kmh SE 11.4 mph18.3 kmh 29.92 in1013.2 mb 0.00 in0.0 mm 0.00 in0.0 mm 0.00 in0.0 mm
02:20 PM 103.1°F39.5°C 78.4°F25.8°C 46% 4.5 mph E7.2 kmh E 11.4 mph18.3 kmh 29.92 in1013.2 mb 0.00 in0.0 mm 0.00 in0.0 mm 0.00 in0.0 mm
02:15 PM 102.6°F39.2°C 78.6°F25.9°C 47% 8.3 mph E13.4 kmh E 11.4 mph18.3 kmh 29.92 in1013.2 mb 0.00 in0.0 mm 0.00 in0.0 mm 0.00 in0.0 mm
02:10 PM 100.6°F38.1°C 78.0°F25.6°C 49% 2.2 mph E3.5 kmh E 10.7 mph17.2 kmh 29.93 in1013.5 mb 0.00 in0.0 mm 0.00 in0.0 mm 0.00 in0.0 mm
02:05 PM 99.1°F37.3°C 76.1°F24.5°C 48% 3.8 mph E6.1 kmh E 10.7 mph17.2 kmh 29.93 in1013.5 mb 0.00 in0.0 mm 0.00 in0.0 mm 0.00 in0.0 mm
02:00 PM 100.6°F38.1°C 76.8°F24.9°C 47% 6.9 mph E11.1 kmh E 10.7 mph17.2 kmh 29.93 in1013.5 mb 0.00 in0.0 mm 0.00 in0.0 mm 0.00 in0.0 mm
01:55 PM 101.3°F38.5°C 78.1°F25.6°C 48% 5.4 mph E8.7 kmh E 9.8 mph15.8 kmh 29.93 in1013.5 mb 0.00 in0.0 mm 0.00 in0.0 mm 0.00 in0.0 mm
01:50 PM 100.6°F38.1°C 77.4°F25.2°C 48% 6.0 mph E9.7 kmh E 13.0 mph20.9 kmh 29.92 in1013.2 mb 0.00 in0.0 mm 0.00 in0.0 mm 0.00 in0.0 mm
01:45 PM 101.3°F38.5°C 78.1°F25.6°C 48% 5.4 mph E8.7 kmh E 13.0 mph20.9 kmh 29.93 in1013.5 mb 0.00 in0.0 mm 0.00 in0.0 mm 0.00 in0.0 mm
01:40 PM 102.0°F38.9°C 78.7°F25.9°C 48% 2.2 mph E3.5 kmh E 12.1 mph19.5 kmh 29.93 in1013.5 mb 0.00 in0.0 mm 0.00 in0.0 mm 0.00 in0.0 mm
01:35 PM 102.4°F39.1°C 79.7°F26.5°C 49% 6.9 mph ESE11.1 kmh ESE 13.0 mph20.9 kmh 29.93 in1013.5 mb 0.00 in0.0 mm 0.00 in0.0 mm 0.00 in0.0 mm
01:30 PM 100.8°F38.2°C 78.2°F25.7°C 49% 6.0 mph E9.7 kmh E 14.5 mph23.3 kmh 29.94 in1013.9 mb 0.00 in0.0 mm 0.00 in0.0 mm 0.00 in0.0 mm
01:25 PM 100.0°F37.8°C 77.5°F25.3°C 49% 9.8 mph E15.8 kmh E 14.5 mph23.3 kmh 29.94 in1013.9 mb 0.00 in0.0 mm 0.00 in0.0 mm 0.00 in0.0 mm
01:20 PM 101.7°F38.7°C 77.8°F25.4°C 47% 6.9 mph ESE11.1 kmh ESE 12.1 mph19.5 kmh 29.94 in1013.9 mb 0.00 in0.0 mm 0.00 in0.0 mm 0.00 in0.0 mm
01:15 PM 102.2°F39.0°C 79.5°F26.4°C 49% 6.0 mph SE9.7 kmh SE 11.4 mph18.3 kmh 29.94 in1013.9 mb 0.00 in0.0 mm 0.00 in0.0 mm 0.00 in0.0 mm
01:10 PM 101.5°F38.6°C 78.9°F26.1°C 49% 7.6 mph SE12.2 kmh SE 12.1 mph19.5 kmh 29.94 in1013.9 mb 0.00 in0.0 mm 0.00 in0.0 mm 0.00 in0.0 mm
01:05 PM 100.8°F38.2°C 78.2°F25.7°C 49% 7.6 mph E12.2 kmh E 12.1 mph19.5 kmh 29.94 in1013.9 mb 0.00 in0.0 mm 0.00 in0.0 mm 0.00 in0.0 mm
01:00 PM 101.3°F38.5°C 78.1°F25.6°C 48% 8.3 mph E13.4 kmh E 13.6 mph21.9 kmh 29.94 in1013.9 mb 0.00 in0.0 mm 0.00 in0.0 mm 0.00 in0.0 mm
12:55 PM 102.2°F39.0°C 79.5°F26.4°C 49% 4.5 mph ESE7.2 kmh ESE 13.6 mph21.9 kmh 29.95 in1014.2 mb 0.00 in0.0 mm 0.00 in0.0 mm 0.00 in0.0 mm
12:50 PM 102.7°F39.3°C 80.0°F26.7°C 49% 7.6 mph ESE12.2 kmh ESE 12.1 mph19.5 kmh 29.95 in1014.2 mb 0.00 in0.0 mm 0.00 in0.0 mm 0.00 in0.0 mm
12:45 PM 102.6°F39.2°C 80.5°F26.9°C 50% 7.6 mph ESE12.2 kmh ESE 13.6 mph21.9 kmh 29.95 in1014.2 mb 0.00 in0.0 mm 0.00 in0.0 mm 0.00 in0.0 mm
12:40 PM 102.4°F39.1°C 80.9°F27.2°C 51% 5.4 mph ESE8.7 kmh ESE 14.5 mph23.3 kmh 29.95 in1014.2 mb 0.00 in0.0 mm 0.00 in0.0 mm 0.00 in0.0 mm
12:35 PM 102.2°F39.0°C 80.7°F27.1°C 51% 6.0 mph ESE9.7 kmh ESE 14.5 mph23.3 kmh 29.95 in1014.2 mb 0.00 in0.0 mm 0.00 in0.0 mm 0.00 in0.0 mm
12:30 PM 102.6°F39.2°C 81.1°F27.3°C 51% 6.9 mph ESE11.1 kmh ESE 13.0 mph20.9 kmh 29.95 in1014.2 mb 0.00 in0.0 mm 0.00 in0.0 mm 0.00 in0.0 mm
12:25 PM 102.6°F39.2°C 81.1°F27.3°C 51% 5.4 mph ESE8.7 kmh ESE 13.0 mph20.9 kmh 29.95 in1014.2 mb 0.00 in0.0 mm 0.00 in0.0 mm 0.00 in0.0 mm
12:20 PM 102.6°F39.2°C 81.1°F27.3°C 51% 6.9 mph ESE11.1 kmh ESE 12.1 mph19.5 kmh 29.95 in1014.2 mb 0.00 in0.0 mm 0.00 in0.0 mm 0.00 in0.0 mm
12:15 PM 102.4°F39.1°C 80.9°F27.2°C 51% 8.3 mph ESE13.4 kmh ESE 12.1 mph19.5 kmh 29.95 in1014.2 mb 0.00 in0.0 mm 0.00 in0.0 mm 0.00 in0.0 mm
12:10 PM 102.4°F39.1°C 81.5°F27.5°C 52% 6.0 mph SE9.7 kmh SE 12.1 mph19.5 kmh 29.95 in1014.2 mb 0.00 in0.0 mm 0.00 in0.0 mm 0.00 in0.0 mm
12:05 PM 102.0°F38.9°C 81.2°F27.3°C 52% 6.0 mph SE9.7 kmh SE 12.1 mph19.5 kmh 29.95 in1014.2 mb 0.00 in0.0 mm 0.00 in0.0 mm 0.00 in0.0 mm
12:00 PM 101.7°F38.7°C 81.4°F27.4°C 53% 6.9 mph SE11.1 kmh SE 10.7 mph17.2 kmh 29.95 in1014.2 mb 0.00 in0.0 mm 0.00 in0.0 mm 0.00 in0.0 mm
11:55 AM 101.1°F38.4°C 80.9°F27.2°C 53% 3.1 mph SSE5.0 kmh SSE 10.7 mph17.2 kmh 29.95 in1014.2 mb 0.00 in0.0 mm 0.00 in0.0 mm 0.00 in0.0 mm
11:50 AM 101.1°F38.4°C 80.9°F27.2°C 53% 6.9 mph SSE11.1 kmh SSE 12.1 mph19.5 kmh 29.95 in1014.2 mb 0.00 in0.0 mm 0.00 in0.0 mm 0.00 in0.0 mm
11:45 AM 101.1°F38.4°C 80.9°F27.2°C 53% 6.9 mph SSE11.1 kmh SSE 12.1 mph19.5 kmh 29.96 in1014.6 mb 0.00 in0.0 mm 0.00 in0.0 mm 0.00 in0.0 mm
11:40 AM 100.8°F38.2°C 81.2°F27.3°C 54% 6.9 mph SSE11.1 kmh SSE 12.1 mph19.5 kmh 29.95 in1014.2 mb 0.00 in0.0 mm 0.00 in0.0 mm 0.00 in0.0 mm
11:35 AM 100.6°F38.1°C 81.0°F27.2°C 54% 6.9 mph SSE11.1 kmh SSE 9.8 mph15.8 kmh 29.95 in1014.2 mb 0.00 in0.0 mm 0.00 in0.0 mm 0.00 in0.0 mm
11:30 AM 100.6°F38.1°C 81.0°F27.2°C 54% 5.4 mph SE8.7 kmh SE 8.3 mph13.4 kmh 29.95 in1014.2 mb 0.00 in0.0 mm 0.00 in0.0 mm 0.00 in0.0 mm
11:25 AM 100.4°F38.0°C 81.4°F27.4°C 55% 6.0 mph SE9.7 kmh SE 10.7 mph17.2 kmh 29.95 in1014.2 mb 0.00 in0.0 mm 0.00 in0.0 mm 0.00 in0.0 mm
11:20 AM 100.2°F37.9°C 81.2°F27.3°C 55% 5.4 mph ESE8.7 kmh ESE 10.7 mph17.2 kmh 29.95 in1014.2 mb 0.00 in0.0 mm 0.00 in0.0 mm 0.00 in0.0 mm
11:15 AM 99.9°F37.7°C 81.5°F27.5°C 56% 5.4 mph ESE8.7 kmh ESE 9.8 mph15.8 kmh 29.94 in1013.9 mb 0.00 in0.0 mm 0.00 in0.0 mm 0.00 in0.0 mm
11:10 AM 99.5°F37.5°C 81.1°F27.3°C 56% 6.0 mph SE9.7 kmh SE 10.7 mph17.2 kmh 29.94 in1013.9 mb 0.00 in0.0 mm 0.00 in0.0 mm 0.00 in0.0 mm
11:05 AM 99.3°F37.4°C 81.0°F27.2°C 56% 5.4 mph ESE8.7 kmh ESE 10.7 mph17.2 kmh 29.95 in1014.2 mb 0.00 in0.0 mm 0.00 in0.0 mm 0.00 in0.0 mm
11:00 AM 99.0°F37.2°C 81.2°F27.3°C 57% 6.9 mph ESE11.1 kmh ESE 10.7 mph17.2 kmh 29.94 in1013.9 mb 0.00 in0.0 mm 0.00 in0.0 mm 0.00 in0.0 mm
10:55 AM 98.6°F37.0°C 80.8°F27.1°C 57% 7.6 mph ESE12.2 kmh ESE 9.8 mph15.8 kmh 29.94 in1013.9 mb 0.00 in0.0 mm 0.00 in0.0 mm 0.00 in0.0 mm
10:50 AM 98.1°F36.7°C 80.9°F27.2°C 58% 4.5 mph ESE7.2 kmh ESE 9.8 mph15.8 kmh 29.95 in1014.2 mb 0.00 in0.0 mm 0.00 in0.0 mm 0.00 in0.0 mm
10:45 AM 97.3°F36.3°C 80.7°F27.1°C 59% 5.4 mph ESE8.7 kmh ESE 10.7 mph17.2 kmh 29.94 in1013.9 mb 0.00 in0.0 mm 0.00 in0.0 mm 0.00 in0.0 mm
10:40 AM 96.8°F36.0°C 80.2°F26.8°C 59% 2.2 mph E3.5 kmh E 12.1 mph19.5 kmh 29.94 in1013.9 mb 0.00 in0.0 mm 0.00 in0.0 mm 0.00 in0.0 mm
10:35 AM 96.6°F35.9°C 80.0°F26.7°C 59% 6.0 mph E9.7 kmh E 12.1 mph19.5 kmh 29.94 in1013.9 mb 0.00 in0.0 mm 0.00 in0.0 mm 0.00 in0.0 mm
10:30 AM 96.8°F36.0°C 80.2°F26.8°C 59% 6.9 mph ESE11.1 kmh ESE 11.4 mph18.3 kmh 29.94 in1013.9 mb 0.00 in0.0 mm 0.00 in0.0 mm 0.00 in0.0 mm
10:25 AM 96.4°F35.8°C 79.9°F26.6°C 59% 6.0 mph SE9.7 kmh SE 9.8 mph15.8 kmh 29.94 in1013.9 mb 0.00 in0.0 mm 0.00 in0.0 mm 0.00 in0.0 mm
10:20 AM 96.3°F35.7°C 79.7°F26.5°C 59% 5.4 mph ESE8.7 kmh ESE 9.8 mph15.8 kmh 29.94 in1013.9 mb 0.00 in0.0 mm 0.00 in0.0 mm 0.00 in0.0 mm
10:15 AM 95.9°F35.5°C 79.9°F26.6°C 60% 8.3 mph ESE13.4 kmh ESE 9.8 mph15.8 kmh 29.94 in1013.9 mb 0.00 in0.0 mm 0.00 in0.0 mm 0.00 in0.0 mm
10:10 AM 95.5°F35.3°C 80.0°F26.7°C 61% 5.4 mph ESE8.7 kmh ESE 8.3 mph13.4 kmh 29.93 in1013.5 mb 0.00 in0.0 mm 0.00 in0.0 mm 0.00 in0.0 mm
10:05 AM 94.8°F34.9°C 79.9°F26.6°C 62% 4.5 mph ESE7.2 kmh ESE 9.2 mph14.8 kmh 29.94 in1013.9 mb 0.00 in0.0 mm 0.00 in0.0 mm 0.00 in0.0 mm
10:00 AM 93.9°F34.4°C 79.0°F26.1°C 62% 5.4 mph SE8.7 kmh SE 9.8 mph15.8 kmh 29.93 in1013.5 mb 0.00 in0.0 mm 0.00 in0.0 mm 0.00 in0.0 mm
09:55 AM 93.4°F34.1°C 79.0°F26.1°C 63% 6.9 mph SE11.1 kmh SE 10.7 mph17.2 kmh 29.93 in1013.5 mb 0.00 in0.0 mm 0.00 in0.0 mm 0.00 in0.0 mm
09:50 AM 92.7°F33.7°C 78.3°F25.7°C 63% 5.4 mph ESE8.7 kmh ESE 12.1 mph19.5 kmh 29.93 in1013.5 mb 0.00 in0.0 mm 0.00 in0.0 mm 0.00 in0.0 mm
09:45 AM 92.3°F33.5°C 78.4°F25.8°C 64% 6.0 mph E9.7 kmh E 12.1 mph19.5 kmh 29.93 in1013.5 mb 0.00 in0.0 mm 0.00 in0.0 mm 0.00 in0.0 mm
09:40 AM 91.8°F33.2°C 78.4°F25.8°C 65% 7.6 mph ESE12.2 kmh ESE 11.4 mph18.3 kmh 29.93 in1013.5 mb 0.00 in0.0 mm 0.00 in0.0 mm 0.00 in0.0 mm
09:35 AM 91.2°F32.9°C 77.9°F25.5°C 65% 4.5 mph SE7.2 kmh SE 10.7 mph17.2 kmh 29.93 in1013.5 mb 0.00 in0.0 mm 0.00 in0.0 mm 0.00 in0.0 mm
09:30 AM 90.9°F32.7°C 77.5°F25.3°C 65% 6.0 mph SE9.7 kmh SE 10.7 mph17.2 kmh 29.93 in1013.5 mb 0.00 in0.0 mm 0.00 in0.0 mm 0.00 in0.0 mm
09:25 AM 90.7°F32.6°C 77.8°F25.4°C 66% 5.4 mph SE8.7 kmh SE 10.7 mph17.2 kmh 29.93 in1013.5 mb 0.00 in0.0 mm 0.00 in0.0 mm 0.00 in0.0 mm
09:20 AM 90.0°F32.2°C 77.6°F25.3°C 67% 5.4 mph SE8.7 kmh SE 9.2 mph14.8 kmh 29.93 in1013.5 mb 0.00 in0.0 mm 0.00 in0.0 mm 0.00 in0.0 mm
09:15 AM 89.1°F31.7°C 77.6°F25.3°C 69% 5.4 mph SE8.7 kmh SE 9.2 mph14.8 kmh 29.92 in1013.2 mb 0.00 in0.0 mm 0.00 in0.0 mm 0.00 in0.0 mm
09:10 AM 88.2°F31.2°C 76.8°F24.9°C 69% 4.5 mph SE7.2 kmh SE 9.2 mph14.8 kmh 29.93 in1013.5 mb 0.00 in0.0 mm 0.00 in0.0 mm 0.00 in0.0 mm
09:05 AM 87.4°F30.8°C 76.5°F24.7°C 70% 6.0 mph SE9.7 kmh SE 9.2 mph14.8 kmh 29.93 in1013.5 mb 0.00 in0.0 mm 0.00 in0.0 mm 0.00 in0.0 mm
09:00 AM 86.9°F30.5°C 76.0°F24.4°C 70% 6.0 mph SE9.7 kmh SE 9.2 mph14.8 kmh 29.93 in1013.5 mb 0.00 in0.0 mm 0.00 in0.0 mm 0.00 in0.0 mm
08:55 AM 86.7°F30.4°C 76.3°F24.6°C 71% 5.4 mph SE8.7 kmh SE 8.3 mph13.4 kmh 29.93 in1013.5 mb 0.00 in0.0 mm 0.00 in0.0 mm 0.00 in0.0 mm
08:50 AM 86.5°F30.3°C 76.1°F24.5°C 71% 6.0 mph ESE9.7 kmh ESE 9.8 mph15.8 kmh 29.92 in1013.2 mb 0.00 in0.0 mm 0.00 in0.0 mm 0.00 in0.0 mm
08:45 AM 86.4°F30.2°C 76.3°F24.6°C 72% 5.4 mph SE8.7 kmh SE 9.8 mph15.8 kmh 29.93 in1013.5 mb 0.00 in0.0 mm 0.00 in0.0 mm 0.00 in0.0 mm
08:40 AM 85.6°F29.8°C 75.6°F24.2°C 72% 4.5 mph SSE7.2 kmh SSE 7.6 mph12.2 kmh 29.93 in1013.5 mb 0.00 in0.0 mm 0.00 in0.0 mm 0.00 in0.0 mm
08:35 AM 84.4°F29.1°C 74.8°F23.8°C 73% 3.8 mph SE6.1 kmh SE 8.3 mph13.4 kmh 29.93 in1013.5 mb 0.00 in0.0 mm 0.00 in0.0 mm 0.00 in0.0 mm
08:30 AM 84.0°F28.9°C 74.9°F23.8°C 74% 3.1 mph SE5.0 kmh SE 9.8 mph15.8 kmh 29.93 in1013.5 mb 0.00 in0.0 mm 0.00 in0.0 mm 0.00 in0.0 mm
08:25 AM 82.9°F28.3°C 73.9°F23.3°C 74% 4.5 mph SE7.2 kmh SE 9.8 mph15.8 kmh 29.92 in1013.2 mb 0.00 in0.0 mm 0.00 in0.0 mm 0.00 in0.0 mm
08:20 AM 82.6°F28.1°C 73.9°F23.3°C 75% 6.9 mph SE11.1 kmh SE 9.8 mph15.8 kmh 29.92 in1013.2 mb 0.00 in0.0 mm 0.00 in0.0 mm 0.00 in0.0 mm
08:15 AM 82.0°F27.8°C 73.4°F23.0°C 75% 2.2 mph SE3.5 kmh SE 6.9 mph11.1 kmh 29.92 in1013.2 mb 0.00 in0.0 mm 0.00 in0.0 mm 0.00 in0.0 mm
08:10 AM 81.1°F27.3°C 72.5°F22.5°C 75% 3.1 mph SE5.0 kmh SE 6.0 mph9.7 kmh 29.92 in1013.2 mb 0.00 in0.0 mm 0.00 in0.0 mm 0.00 in0.0 mm
08:05 AM 80.6°F27.0°C 72.4°F22.4°C 76% 2.2 mph ESE3.5 kmh ESE 6.0 mph9.7 kmh 29.92 in1013.2 mb 0.00 in0.0 mm 0.00 in0.0 mm 0.00 in0.0 mm
08:00 AM 80.1°F26.7°C 71.9°F22.2°C 76% 3.1 mph SE5.0 kmh SE 4.5 mph7.2 kmh 29.92 in1013.2 mb 0.00 in0.0 mm 0.00 in0.0 mm 0.00 in0.0 mm
07:55 AM 79.5°F26.4°C 71.7°F22.1°C 77% 0.7 mph SE1.1 kmh SE 4.5 mph7.2 kmh 29.92 in1013.2 mb 0.00 in0.0 mm 0.00 in0.0 mm 0.00 in0.0 mm
07:50 AM 78.6°F25.9°C 71.2°F21.8°C 78% 0.7 mph SE1.1 kmh SE 3.8 mph6.1 kmh 29.91 in1012.9 mb 0.00 in0.0 mm 0.00 in0.0 mm 0.00 in0.0 mm
07:45 AM 78.1°F25.6°C 71.1°F21.7°C 79% 3.1 mph SE5.0 kmh SE 3.8 mph6.1 kmh 29.92 in1013.2 mb 0.00 in0.0 mm 0.00 in0.0 mm 0.00 in0.0 mm
07:40 AM 77.5°F25.3°C 70.6°F21.4°C 79% 1.6 mph ESE2.6 kmh ESE 3.8 mph6.1 kmh 29.92 in1013.2 mb 0.00 in0.0 mm 0.00 in0.0 mm 0.00 in0.0 mm
07:35 AM 76.8°F24.9°C 69.9°F21.1°C 79% 1.6 mph SE2.6 kmh SE 3.1 mph5.0 kmh 29.91 in1012.9 mb 0.00 in0.0 mm 0.00 in0.0 mm 0.00 in0.0 mm
07:30 AM 76.1°F24.5°C 69.5°F20.8°C 80% 0.7 mph SE1.1 kmh SE 3.1 mph5.0 kmh 29.91 in1012.9 mb 0.00 in0.0 mm 0.00 in0.0 mm 0.00 in0.0 mm
07:25 AM 75.7°F24.3°C 69.2°F20.7°C 80% 0.7 mph SE1.1 kmh SE 3.1 mph5.0 kmh 29.91 in1012.9 mb 0.00 in0.0 mm 0.00 in0.0 mm 0.00 in0.0 mm
07:20 AM 75.4°F24.1°C 68.8°F20.4°C 80% 1.6 mph SE2.6 kmh SE 3.1 mph5.0 kmh 29.91 in1012.9 mb 0.00 in0.0 mm 0.00 in0.0 mm 0.00 in0.0 mm
07:15 AM 75.2°F24.0°C 68.6°F20.3°C 80% 2.2 mph ESE3.5 kmh ESE 3.8 mph6.1 kmh 29.91 in1012.9 mb 0.00 in0.0 mm 0.00 in0.0 mm 0.00 in0.0 mm
07:10 AM 75.2°F24.0°C 68.6°F20.3°C 80% 1.6 mph E2.6 kmh E 3.8 mph6.1 kmh 29.91 in1012.9 mb 0.00 in0.0 mm 0.00 in0.0 mm 0.00 in0.0 mm
07:05 AM 75.0°F23.9°C 68.5°F20.3°C 80% 1.6 mph E2.6 kmh E 2.2 mph3.5 kmh 29.91 in1012.9 mb 0.00 in0.0 mm 0.00 in0.0 mm 0.00 in0.0 mm
07:00 AM 75.0°F23.9°C 68.5°F20.3°C 80% Calm Calm -- 29.91 in1012.9 mb 0.00 in0.0 mm 0.00 in0.0 mm 0.00 in0.0 mm
06:55 AM 75.0°F23.9°C 68.5°F20.3°C 80% Calm Calm -- 29.91 in1012.9 mb 0.00 in0.0 mm 0.00 in0.0 mm 0.00 in0.0 mm
06:50 AM 75.0°F23.9°C 68.5°F20.3°C 80% Calm Calm -- 29.90 in1012.5 mb 0.00 in0.0 mm 0.00 in0.0 mm 0.00 in0.0 mm
06:45 AM 75.0°F23.9°C 68.5°F20.3°C 80% Calm Calm 1.6 mph2.6 kmh 29.91 in1012.9 mb 0.00 in0.0 mm 0.00 in0.0 mm 0.00 in0.0 mm
06:40 AM 75.2°F24.0°C 68.6°F20.3°C 80% Calm Calm 2.2 mph3.5 kmh 29.91 in1012.9 mb 0.00 in0.0 mm 0.00 in0.0 mm 0.00 in0.0 mm
06:35 AM 75.4°F24.1°C 68.8°F20.4°C 80% 0.7 mph E1.1 kmh E 2.2 mph3.5 kmh 29.90 in1012.5 mb 0.00 in0.0 mm 0.00 in0.0 mm 0.00 in0.0 mm
06:30 AM 75.4°F24.1°C 68.8°F20.4°C 80% 0.7 mph E1.1 kmh E 1.6 mph2.6 kmh 29.89 in1012.2 mb 0.00 in0.0 mm 0.00 in0.0 mm 0.00 in0.0 mm
06:25 AM 75.4°F24.1°C 68.8°F20.4°C 80% Calm Calm 1.6 mph2.6 kmh 29.89 in1012.2 mb 0.00 in0.0 mm 0.00 in0.0 mm 0.00 in0.0 mm
06:20 AM 75.4°F24.1°C 68.8°F20.4°C 80% Calm Calm 1.6 mph2.6 kmh 29.89 in1012.2 mb 0.00 in0.0 mm 0.00 in0.0 mm 0.00 in0.0 mm
06:15 AM 75.6°F24.2°C 69.0°F20.6°C 80% Calm Calm 2.2 mph3.5 kmh 29.89 in1012.2 mb 0.00 in0.0 mm 0.00 in0.0 mm 0.00 in0.0 mm
06:10 AM 75.6°F24.2°C 69.0°F20.6°C 80% 0.7 mph E1.1 kmh E 2.2 mph3.5 kmh 29.89 in1012.2 mb 0.00 in0.0 mm 0.00 in0.0 mm 0.00 in0.0 mm
06:05 AM 75.6°F24.2°C 69.0°F20.6°C 80% 0.7 mph E1.1 kmh E 3.1 mph5.0 kmh 29.89 in1012.2 mb 0.00 in0.0 mm 0.00 in0.0 mm 0.00 in0.0 mm
06:00 AM 75.6°F24.2°C 68.6°F20.3°C 79% 1.6 mph SE2.6 kmh SE 3.1 mph5.0 kmh 29.88 in1011.9 mb 0.00 in0.0 mm 0.00 in0.0 mm 0.00 in0.0 mm
05:55 AM 75.7°F24.3°C 68.8°F20.4°C 79% 2.2 mph S3.5 kmh S 3.1 mph5.0 kmh 29.88 in1011.9 mb 0.00 in0.0 mm 0.00 in0.0 mm 0.00 in0.0 mm
05:50 AM 75.7°F24.3°C 68.8°F20.4°C 79% 0.7 mph SSW1.1 kmh SSW 2.2 mph3.5 kmh 29.88 in1011.9 mb 0.00 in0.0 mm 0.00 in0.0 mm 0.00 in0.0 mm
05:45 AM 75.7°F24.3°C 68.8°F20.4°C 79% 0.7 mph S1.1 kmh S 2.2 mph3.5 kmh 29.88 in1011.9 mb 0.00 in0.0 mm 0.00 in0.0 mm 0.00 in0.0 mm
05:40 AM 75.9°F24.4°C 69.0°F20.6°C 79% Calm Calm 2.2 mph3.5 kmh 29.88 in1011.9 mb 0.00 in0.0 mm 0.00 in0.0 mm 0.00 in0.0 mm
05:35 AM 76.1°F24.5°C 69.2°F20.7°C 79% 0.7 mph SE1.1 kmh SE 3.1 mph5.0 kmh 29.88 in1011.9 mb 0.00 in0.0 mm 0.00 in0.0 mm 0.00 in0.0 mm
05:30 AM 76.1°F24.5°C 69.2°F20.7°C 79% 1.6 mph SE2.6 kmh SE 3.8 mph6.1 kmh 29.88 in1011.9 mb 0.00 in0.0 mm 0.00 in0.0 mm 0.00 in0.0 mm
05:25 AM 75.9°F24.4°C 69.0°F20.6°C 79% 2.2 mph SE3.5 kmh SE 4.5 mph7.2 kmh 29.88 in1011.9 mb 0.00 in0.0 mm 0.00 in0.0 mm 0.00 in0.0 mm
05:20 AM 76.1°F24.5°C 69.2°F20.7°C 79% 1.6 mph SSE2.6 kmh SSE 4.5 mph7.2 kmh 29.88 in1011.9 mb 0.00 in0.0 mm 0.00 in0.0 mm 0.00 in0.0 mm
05:15 AM 76.1°F24.5°C 69.2°F20.7°C 79% 1.6 mph SSE2.6 kmh SSE 3.8 mph6.1 kmh 29.88 in1011.9 mb 0.00 in0.0 mm 0.00 in0.0 mm 0.00 in0.0 mm
05:10 AM 76.1°F24.5°C 69.2°F20.7°C 79% 0.7 mph SE1.1 kmh SE 3.8 mph6.1 kmh 29.88 in1011.9 mb 0.00 in0.0 mm 0.00 in0.0 mm 0.00 in0.0 mm
05:05 AM 76.1°F24.5°C 69.2°F20.7°C 79% 0.7 mph ESE1.1 kmh ESE 4.5 mph7.2 kmh 29.88 in1011.9 mb 0.00 in0.0 mm 0.00 in0.0 mm 0.00 in0.0 mm
05:00 AM 76.1°F24.5°C 69.2°F20.7°C 79% 2.2 mph SE3.5 kmh SE 4.5 mph7.2 kmh 29.88 in1011.9 mb 0.00 in0.0 mm 0.00 in0.0 mm 0.00 in0.0 mm
04:55 AM 76.1°F24.5°C 69.2°F20.7°C 79% 1.6 mph SSE2.6 kmh SSE 3.1 mph5.0 kmh 29.88 in1011.9 mb 0.00 in0.0 mm 0.00 in0.0 mm 0.00 in0.0 mm
04:50 AM 76.1°F24.5°C 69.2°F20.7°C 79% 1.6 mph S2.6 kmh S 3.1 mph5.0 kmh 29.88 in1011.9 mb 0.00 in0.0 mm 0.00 in0.0 mm 0.00 in0.0 mm
04:45 AM 76.3°F24.6°C 69.3°F20.7°C 79% 1.6 mph S2.6 kmh S 3.1 mph5.0 kmh 29.88 in1011.9 mb 0.00 in0.0 mm 0.00 in0.0 mm 0.00 in0.0 mm
04:40 AM 76.3°F24.6°C 69.3°F20.7°C 79% 1.6 mph SSE2.6 kmh SSE 3.8 mph6.1 kmh 29.88 in1011.9 mb 0.00 in0.0 mm 0.00 in0.0 mm 0.00 in0.0 mm
04:35 AM 76.5°F24.7°C 69.5°F20.8°C 79% 1.6 mph SE2.6 kmh SE 4.5 mph7.2 kmh 29.88 in1011.9 mb 0.00 in0.0 mm 0.00 in0.0 mm 0.00 in0.0 mm
04:30 AM 76.3°F24.6°C 69.3°F20.7°C 79% 2.2 mph SE3.5 kmh SE 4.5 mph7.2 kmh 29.88 in1011.9 mb 0.00 in0.0 mm 0.00 in0.0 mm 0.00 in0.0 mm
04:25 AM 76.5°F24.7°C 69.5°F20.8°C 79% 2.2 mph SE3.5 kmh SE 4.5 mph7.2 kmh 29.88 in1011.9 mb 0.00 in0.0 mm 0.00 in0.0 mm 0.00 in0.0 mm
04:20 AM 76.3°F24.6°C 69.3°F20.7°C 79% 3.1 mph SE5.0 kmh SE 5.4 mph8.7 kmh 29.88 in1011.9 mb 0.00 in0.0 mm 0.00 in0.0 mm 0.00 in0.0 mm
04:15 AM 76.5°F24.7°C 69.5°F20.8°C 79% 3.8 mph SSE6.1 kmh SSE 5.4 mph8.7 kmh 29.88 in1011.9 mb 0.00 in0.0 mm 0.00 in0.0 mm 0.00 in0.0 mm
04:10 AM 76.3°F24.6°C 69.3°F20.7°C 79% 3.8 mph S6.1 kmh S 5.4 mph8.7 kmh 29.88 in1011.9 mb 0.00 in0.0 mm 0.00 in0.0 mm 0.00 in0.0 mm
04:05 AM 76.5°F24.7°C 69.5°F20.8°C 79% 2.2 mph SSE3.5 kmh SSE 3.1 mph5.0 kmh 29.88 in1011.9 mb 0.00 in0.0 mm 0.00 in0.0 mm 0.00 in0.0 mm
04:00 AM 76.5°F24.7°C 69.5°F20.8°C 79% 1.6 mph SE2.6 kmh SE 3.1 mph5.0 kmh 29.89 in1012.2 mb 0.00 in0.0 mm 0.00 in0.0 mm 0.00 in0.0 mm
03:55 AM 76.5°F24.7°C 69.1°F20.6°C 78% 1.6 mph ESE2.6 kmh ESE 2.2 mph3.5 kmh 29.89 in1012.2 mb 0.00 in0.0 mm 0.00 in0.0 mm 0.00 in0.0 mm
03:50 AM 76.3°F24.6°C 69.3°F20.7°C 79% Calm Calm 2.2 mph3.5 kmh 29.89 in1012.2 mb 0.00 in0.0 mm 0.00 in0.0 mm 0.00 in0.0 mm
03:45 AM 76.5°F24.7°C 69.1°F20.6°C 78% 0.7 mph E1.1 kmh E 2.2 mph3.5 kmh 29.88 in1011.9 mb 0.00 in0.0 mm 0.00 in0.0 mm 0.00 in0.0 mm
03:40 AM 76.6°F24.8°C 69.3°F20.7°C 78% 0.7 mph ENE1.1 kmh ENE 2.2 mph3.5 kmh 29.89 in1012.2 mb 0.00 in0.0 mm 0.00 in0.0 mm 0.00 in0.0 mm
03:35 AM 76.6°F24.8°C 69.3°F20.7°C 78% 0.7 mph ENE1.1 kmh ENE 2.2 mph3.5 kmh 29.89 in1012.2 mb 0.00 in0.0 mm 0.00 in0.0 mm 0.00 in0.0 mm
03:30 AM 76.8°F24.9°C 69.5°F20.8°C 78% 0.7 mph E1.1 kmh E 2.2 mph3.5 kmh 29.89 in1012.2 mb 0.00 in0.0 mm 0.00 in0.0 mm 0.00 in0.0 mm
03:25 AM 77.0°F25.0°C 69.7°F20.9°C 78% 0.7 mph E1.1 kmh E 3.1 mph5.0 kmh 29.89 in1012.2 mb 0.00 in0.0 mm 0.00 in0.0 mm 0.00 in0.0 mm
03:20 AM 77.0°F25.0°C 69.7°F20.9°C 78% 1.6 mph E2.6 kmh E 3.1 mph5.0 kmh 29.89 in1012.2 mb 0.00 in0.0 mm 0.00 in0.0 mm 0.00 in0.0 mm
03:15 AM 77.0°F25.0°C 69.7°F20.9°C 78% 1.6 mph E2.6 kmh E 3.8 mph6.1 kmh 29.89 in1012.2 mb 0.00 in0.0 mm 0.00 in0.0 mm 0.00 in0.0 mm
03:10 AM 77.2°F25.1°C 69.8°F21.0°C 78% 1.6 mph E2.6 kmh E 4.5 mph7.2 kmh 29.89 in1012.2 mb 0.00 in0.0 mm 0.00 in0.0 mm 0.00 in0.0 mm
03:05 AM 77.0°F25.0°C 69.7°F20.9°C 78% 2.2 mph E3.5 kmh E 4.5 mph7.2 kmh 29.89 in1012.2 mb 0.00 in0.0 mm 0.00 in0.0 mm 0.00 in0.0 mm
03:00 AM 77.0°F25.0°C 69.7°F20.9°C 78% 3.1 mph ESE5.0 kmh ESE 5.4 mph8.7 kmh 29.89 in1012.2 mb 0.00 in0.0 mm 0.00 in0.0 mm 0.00 in0.0 mm
02:55 AM 77.2°F25.1°C 69.8°F21.0°C 78% 2.2 mph ESE3.5 kmh ESE 5.4 mph8.7 kmh 29.90 in1012.5 mb 0.00 in0.0 mm 0.00 in0.0 mm 0.00 in0.0 mm
02:50 AM 77.0°F25.0°C 69.7°F20.9°C 78% 2.2 mph SE3.5 kmh SE 3.8 mph6.1 kmh 29.90 in1012.5 mb 0.00 in0.0 mm 0.00 in0.0 mm 0.00 in0.0 mm
02:45 AM 77.2°F25.1°C 69.8°F21.0°C 78% 2.2 mph SE3.5 kmh SE 5.4 mph8.7 kmh 29.90 in1012.5 mb 0.00 in0.0 mm 0.00 in0.0 mm 0.00 in0.0 mm
02:40 AM 77.2°F25.1°C 69.8°F21.0°C 78% 2.2 mph SE3.5 kmh SE 5.4 mph8.7 kmh 29.90 in1012.5 mb 0.00 in0.0 mm 0.00 in0.0 mm 0.00 in0.0 mm
02:35 AM 77.2°F25.1°C 69.8°F21.0°C 78% 3.1 mph SE5.0 kmh SE 5.4 mph8.7 kmh 29.90 in1012.5 mb 0.00 in0.0 mm 0.00 in0.0 mm 0.00 in0.0 mm
02:30 AM 77.2°F25.1°C 69.8°F21.0°C 78% 3.1 mph SE5.0 kmh SE 4.5 mph7.2 kmh 29.90 in1012.5 mb 0.00 in0.0 mm 0.00 in0.0 mm 0.00 in0.0 mm
02:25 AM 77.4°F25.2°C 70.0°F21.1°C 78% 2.2 mph SE3.5 kmh SE 4.5 mph7.2 kmh 29.90 in1012.5 mb 0.00 in0.0 mm 0.00 in0.0 mm 0.00 in0.0 mm
02:20 AM 77.2°F25.1°C 69.8°F21.0°C 78% 2.2 mph SE3.5 kmh SE 4.5 mph7.2 kmh 29.90 in1012.5 mb 0.00 in0.0 mm 0.00 in0.0 mm 0.00 in0.0 mm
02:15 AM 77.4°F25.2°C 70.0°F21.1°C 78% 2.2 mph ESE3.5 kmh ESE 4.5 mph7.2 kmh 29.91 in1012.9 mb 0.00 in0.0 mm 0.00 in0.0 mm 0.00 in0.0 mm
02:10 AM 77.4°F25.2°C 70.0°F21.1°C 78% 2.2 mph ESE3.5 kmh ESE 4.5 mph7.2 kmh 29.91 in1012.9 mb 0.00 in0.0 mm 0.00 in0.0 mm 0.00 in0.0 mm
02:05 AM 77.4°F25.2°C 70.0°F21.1°C 78% 3.1 mph ESE5.0 kmh ESE 6.9 mph11.1 kmh 29.91 in1012.9 mb 0.00 in0.0 mm 0.00 in0.0 mm 0.00 in0.0 mm
02:00 AM 77.5°F25.3°C 70.2°F21.2°C 78% 3.1 mph ESE5.0 kmh ESE 6.9 mph11.1 kmh 29.91 in1012.9 mb 0.00 in0.0 mm 0.00 in0.0 mm 0.00 in0.0 mm
01:55 AM 77.4°F25.2°C 70.0°F21.1°C 78% 3.8 mph E6.1 kmh E 6.0 mph9.7 kmh 29.91 in1012.9 mb 0.00 in0.0 mm 0.00 in0.0 mm 0.00 in0.0 mm
01:50 AM 77.5°F25.3°C 70.2°F21.2°C 78% 2.2 mph ESE3.5 kmh ESE 6.0 mph9.7 kmh 29.91 in1012.9 mb 0.00 in0.0 mm 0.00 in0.0 mm 0.00 in0.0 mm
01:45 AM 77.4°F25.2°C 69.6°F20.9°C 77% 3.1 mph ESE5.0 kmh ESE 8.3 mph13.4 kmh 29.91 in1012.9 mb 0.00 in0.0 mm 0.00 in0.0 mm 0.00 in0.0 mm
01:40 AM 77.4°F25.2°C 69.6°F20.9°C 77% 3.1 mph ESE5.0 kmh ESE 8.3 mph13.4 kmh 29.91 in1012.9 mb 0.00 in0.0 mm 0.00 in0.0 mm 0.00 in0.0 mm
01:35 AM 77.4°F25.2°C 69.6°F20.9°C 77% 3.8 mph ESE6.1 kmh ESE 6.9 mph11.1 kmh 29.91 in1012.9 mb 0.00 in0.0 mm 0.00 in0.0 mm 0.00 in0.0 mm
01:30 AM 77.4°F25.2°C 69.6°F20.9°C 77% 3.8 mph ESE6.1 kmh ESE 6.9 mph11.1 kmh 29.91 in1012.9 mb 0.00 in0.0 mm 0.00 in0.0 mm 0.00 in0.0 mm
01:25 AM 77.2°F25.1°C 69.5°F20.8°C 77% 5.4 mph ESE8.7 kmh ESE 6.9 mph11.1 kmh 29.92 in1013.2 mb 0.00 in0.0 mm 0.00 in0.0 mm 0.00 in0.0 mm
01:20 AM 77.4°F25.2°C 69.6°F20.9°C 77% 4.5 mph E7.2 kmh E 6.9 mph11.1 kmh 29.92 in1013.2 mb 0.00 in0.0 mm 0.00 in0.0 mm 0.00 in0.0 mm
01:15 AM 77.0°F25.0°C 69.3°F20.7°C 77% 3.8 mph ESE6.1 kmh ESE 6.0 mph9.7 kmh 29.92 in1013.2 mb 0.00 in0.0 mm 0.00 in0.0 mm 0.00 in0.0 mm
01:10 AM 77.2°F25.1°C 69.5°F20.8°C 77% 3.1 mph SE5.0 kmh SE 4.5 mph7.2 kmh 29.92 in1013.2 mb 0.00 in0.0 mm 0.00 in0.0 mm 0.00 in0.0 mm
01:05 AM 77.0°F25.0°C 69.3°F20.7°C 77% 2.2 mph SE3.5 kmh SE 3.8 mph6.1 kmh 29.92 in1013.2 mb 0.00 in0.0 mm 0.00 in0.0 mm 0.00 in0.0 mm
01:00 AM 77.2°F25.1°C 69.5°F20.8°C 77% 2.2 mph SE3.5 kmh SE 3.1 mph5.0 kmh 29.92 in1013.2 mb 0.00 in0.0 mm 0.00 in0.0 mm 0.00 in0.0 mm
12:55 AM 77.2°F25.1°C 69.5°F20.8°C 77% 1.6 mph SSE2.6 kmh SSE 3.1 mph5.0 kmh 29.92 in1013.2 mb 0.00 in0.0 mm 0.00 in0.0 mm 0.00 in0.0 mm
12:50 AM 77.4°F25.2°C 69.2°F20.7°C 76% 1.6 mph S2.6 kmh S 3.1 mph5.0 kmh 29.92 in1013.2 mb 0.00 in0.0 mm 0.00 in0.0 mm 0.00 in0.0 mm
12:45 AM 77.4°F25.2°C 69.2°F20.7°C 76% 1.6 mph S2.6 kmh S 3.8 mph6.1 kmh 29.92 in1013.2 mb 0.00 in0.0 mm 0.00 in0.0 mm 0.00 in0.0 mm
12:40 AM 77.4°F25.2°C 69.2°F20.7°C 76% 1.6 mph S2.6 kmh S 3.8 mph6.1 kmh 29.93 in1013.5 mb 0.00 in0.0 mm 0.00 in0.0 mm 0.00 in0.0 mm
12:35 AM 77.4°F25.2°C 69.2°F20.7°C 76% 2.2 mph S3.5 kmh S 3.8 mph6.1 kmh 29.93 in1013.5 mb 0.00 in0.0 mm 0.00 in0.0 mm 0.00 in0.0 mm
12:30 AM 77.4°F25.2°C 69.2°F20.7°C 76% 2.2 mph SSE3.5 kmh SSE 3.8 mph6.1 kmh 29.93 in1013.5 mb 0.00 in0.0 mm 0.00 in0.0 mm 0.00 in0.0 mm
12:25 AM 77.4°F25.2°C 69.2°F20.7°C 76% 1.6 mph SE2.6 kmh SE 3.8 mph6.1 kmh 29.93 in1013.5 mb 0.00 in0.0 mm 0.00 in0.0 mm 0.00 in0.0 mm
12:20 AM 77.4°F25.2°C 69.2°F20.7°C 76% 2.2 mph SE3.5 kmh SE 3.1 mph5.0 kmh 29.93 in1013.5 mb 0.00 in0.0 mm 0.00 in0.0 mm 0.00 in0.0 mm
12:15 AM 77.5°F25.3°C 69.4°F20.8°C 76% Calm Calm -- 29.93 in1013.5 mb 0.00 in0.0 mm 0.00 in0.0 mm 0.00 in0.0 mm
12:10 AM 79.3°F26.3°C 71.2°F21.8°C 76% Calm Calm 1.6 mph2.6 kmh 29.93 in1013.5 mb 0.00 in0.0 mm 0.00 in0.0 mm 0.00 in0.0 mm
12:05 AM 79.3°F26.3°C 71.2°F21.8°C 76% Calm Calm 2.2 mph3.5 kmh 29.93 in1013.5 mb 0.00 in0.0 mm 0.00 in0.0 mm 0.00 in0.0 mm
12:00 AM 79.3°F26.3°C 71.2°F21.8°C 76% 0.7 mph SE1.1 kmh SE 3.1 mph5.0 kmh 29.92 in1013.2 mb 0.00 in0.0 mm 0.00 in0.0 mm 0.00 in0.0 mm